sensor_id;sensor_type;location;lat;lon;timestamp;temperature;humidity
21255;DHT22;10785;50.674;17.954;2023-09-19T00:00:58;19.90;99.90
21255;DHT22;10785;50.674;17.954;2023-09-19T00:03:26;19.90;99.90
21255;DHT22;10785;50.674;17.954;2023-09-19T00:05:58;19.80;99.90
21255;DHT22;10785;50.674;17.954;2023-09-19T00:08:27;19.80;99.90
21255;DHT22;10785;50.674;17.954;2023-09-19T00:10:56;19.80;99.90
21255;DHT22;10785;50.674;17.954;2023-09-19T00:13:32;19.70;99.90
21255;DHT22;10785;50.674;17.954;2023-09-19T00:16:09;19.70;99.90
21255;DHT22;10785;50.674;17.954;2023-09-19T00:18:38;19.60;99.90
21255;DHT22;10785;50.674;17.954;2023-09-19T00:21:07;19.60;99.90
21255;DHT22;10785;50.674;17.954;2023-09-19T00:23:37;19.50;99.90
21255;DHT22;10785;50.674;17.954;2023-09-19T00:26:08;19.50;99.90
21255;DHT22;10785;50.674;17.954;2023-09-19T00:28:40;19.40;99.90
21255;DHT22;10785;50.674;17.954;2023-09-19T00:31:09;19.40;99.90
21255;DHT22;10785;50.674;17.954;2023-09-19T00:33:38;19.40;99.90
21255;DHT22;10785;50.674;17.954;2023-09-19T00:36:07;19.30;99.90
21255;DHT22;10785;50.674;17.954;2023-09-19T00:38:36;19.30;99.90
21255;DHT22;10785;50.674;17.954;2023-09-19T00:41:05;19.30;99.90
21255;DHT22;10785;50.674;17.954;2023-09-19T00:43:35;19.30;99.90
21255;DHT22;10785;50.674;17.954;2023-09-19T00:46:05;19.30;99.90
21255;DHT22;10785;50.674;17.954;2023-09-19T00:48:40;19.30;99.90
21255;DHT22;10785;50.674;17.954;2023-09-19T00:51:11;19.30;99.90
21255;DHT22;10785;50.674;17.954;2023-09-19T00:53:43;19.20;99.90
21255;DHT22;10785;50.674;17.954;2023-09-19T00:56:14;19.20;99.90
21255;DHT22;10785;50.674;17.954;2023-09-19T00:58:47;19.20;99.90
21255;DHT22;10785;50.674;17.954;2023-09-19T01:01:18;19.10;99.90
21255;DHT22;10785;50.674;17.954;2023-09-19T01:03:47;19.10;99.90
21255;DHT22;10785;50.674;17.954;2023-09-19T01:06:19;19.10;99.90
21255;DHT22;10785;50.674;17.954;2023-09-19T01:08:48;19.10;99.90
21255;DHT22;10785;50.674;17.954;2023-09-19T01:11:25;19.10;99.90
21255;DHT22;10785;50.674;17.954;2023-09-19T01:14:00;19.10;99.90
21255;DHT22;10785;50.674;17.954;2023-09-19T01:16:38;19.10;99.90
21255;DHT22;10785;50.674;17.954;2023-09-19T01:19:35;19.00;99.90
21255;DHT22;10785;50.674;17.954;2023-09-19T01:22:18;19.00;99.90
21255;DHT22;10785;50.674;17.954;2023-09-19T01:25:15;19.00;99.90
21255;DHT22;10785;50.674;17.954;2023-09-19T01:28:06;19.00;99.90
21255;DHT22;10785;50.674;17.954;2023-09-19T01:30:43;19.00;99.90
21255;DHT22;10785;50.674;17.954;2023-09-19T01:33:12;19.00;99.90
21255;DHT22;10785;50.674;17.954;2023-09-19T01:35:42;19.00;99.90
21255;DHT22;10785;50.674;17.954;2023-09-19T01:38:11;19.00;99.90
21255;DHT22;10785;50.674;17.954;2023-09-19T01:40:42;19.00;99.90
21255;DHT22;10785;50.674;17.954;2023-09-19T01:43:16;19.00;99.90
21255;DHT22;10785;50.674;17.954;2023-09-19T01:45:53;19.00;99.90
21255;DHT22;10785;50.674;17.954;2023-09-19T01:48:30;19.10;99.90
21255;DHT22;10785;50.674;17.954;2023-09-19T01:51:05;19.10;99.90
21255;DHT22;10785;50.674;17.954;2023-09-19T01:53:38;19.10;99.90
21255;DHT22;10785;50.674;17.954;2023-09-19T01:56:09;19.10;99.90
21255;DHT22;10785;50.674;17.954;2023-09-19T01:58:44;19.10;99.90
21255;DHT22;10785;50.674;17.954;2023-09-19T02:01:19;19.10;99.90
21255;DHT22;10785;50.674;17.954;2023-09-19T02:03:50;19.10;99.90
21255;DHT22;10785;50.674;17.954;2023-09-19T02:06:22;19.10;99.90
21255;DHT22;10785;50.674;17.954;2023-09-19T02:08:55;19.10;99.90
21255;DHT22;10785;50.674;17.954;2023-09-19T02:11:24;19.10;99.90
21255;DHT22;10785;50.674;17.954;2023-09-19T02:13:53;19.10;99.90
21255;DHT22;10785;50.674;17.954;2023-09-19T02:16:24;19.10;99.90
21255;DHT22;10785;50.674;17.954;2023-09-19T02:18:56;19.10;99.90
21255;DHT22;10785;50.674;17.954;2023-09-19T02:21:25;19.10;99.90
21255;DHT22;10785;50.674;17.954;2023-09-19T02:23:57;19.10;99.90
21255;DHT22;10785;50.674;17.954;2023-09-19T02:26:26;19.10;99.90
21255;DHT22;10785;50.674;17.954;2023-09-19T02:28:55;19.10;99.90
21255;DHT22;10785;50.674;17.954;2023-09-19T02:31:25;19.10;99.90
21255;DHT22;10785;50.674;17.954;2023-09-19T02:33:57;19.00;99.90
21255;DHT22;10785;50.674;17.954;2023-09-19T02:36:27;19.00;99.90
21255;DHT22;10785;50.674;17.954;2023-09-19T02:38:58;19.00;99.90
21255;DHT22;10785;50.674;17.954;2023-09-19T02:41:26;18.90;99.90
21255;DHT22;10785;50.674;17.954;2023-09-19T02:43:56;18.80;99.90
21255;DHT22;10785;50.674;17.954;2023-09-19T02:46:28;18.80;99.90
21255;DHT22;10785;50.674;17.954;2023-09-19T02:48:57;18.70;99.90
21255;DHT22;10785;50.674;17.954;2023-09-19T02:51:26;18.70;99.90
21255;DHT22;10785;50.674;17.954;2023-09-19T02:53:54;18.60;99.90
21255;DHT22;10785;50.674;17.954;2023-09-19T02:56:23;18.50;99.90
21255;DHT22;10785;50.674;17.954;2023-09-19T02:58:52;18.50;99.90
21255;DHT22;10785;50.674;17.954;2023-09-19T03:01:22;18.50;99.90
21255;DHT22;10785;50.674;17.954;2023-09-19T03:03:53;18.50;99.90
21255;DHT22;10785;50.674;17.954;2023-09-19T03:06:22;18.50;99.90
21255;DHT22;10785;50.674;17.954;2023-09-19T03:08:51;18.50;99.90
21255;DHT22;10785;50.674;17.954;2023-09-19T03:11:22;18.40;99.90
21255;DHT22;10785;50.674;17.954;2023-09-19T03:13:55;18.40;99.90
21255;DHT22;10785;50.674;17.954;2023-09-19T03:16:24;18.40;99.90
21255;DHT22;10785;50.674;17.954;2023-09-19T03:18:58;18.40;99.90
21255;DHT22;10785;50.674;17.954;2023-09-19T03:21:29;18.40;99.90
21255;DHT22;10785;50.674;17.954;2023-09-19T03:23:58;18.40;99.90
21255;DHT22;10785;50.674;17.954;2023-09-19T03:26:26;18.40;99.90
21255;DHT22;10785;50.674;17.954;2023-09-19T03:28:55;18.40;99.90
21255;DHT22;10785;50.674;17.954;2023-09-19T03:31:27;18.40;99.90
21255;DHT22;10785;50.674;17.954;2023-09-19T03:33:58;18.40;99.90
21255;DHT22;10785;50.674;17.954;2023-09-19T03:36:29;18.40;99.90
21255;DHT22;10785;50.674;17.954;2023-09-19T03:38:57;18.40;99.90
21255;DHT22;10785;50.674;17.954;2023-09-19T03:41:27;18.40;99.90
21255;DHT22;10785;50.674;17.954;2023-09-19T03:43:56;18.40;99.90
21255;DHT22;10785;50.674;17.954;2023-09-19T03:46:26;18.40;99.90
21255;DHT22;10785;50.674;17.954;2023-09-19T03:48:55;18.40;99.90
21255;DHT22;10785;50.674;17.954;2023-09-19T03:51:25;18.30;99.90
21255;DHT22;10785;50.674;17.954;2023-09-19T03:53:53;18.30;99.90
21255;DHT22;10785;50.674;17.954;2023-09-19T03:56:22;18.30;99.90
21255;DHT22;10785;50.674;17.954;2023-09-19T03:58:51;18.30;99.90
21255;DHT22;10785;50.674;17.954;2023-09-19T04:01:19;18.30;99.90
21255;DHT22;10785;50.674;17.954;2023-09-19T04:03:48;18.30;99.90
21255;DHT22;10785;50.674;17.954;2023-09-19T04:06:19;18.30;99.90
21255;DHT22;10785;50.674;17.954;2023-09-19T04:08:49;18.30;99.90
21255;DHT22;10785;50.674;17.954;2023-09-19T04:11:18;18.30;99.90
21255;DHT22;10785;50.674;17.954;2023-09-19T04:13:46;18.30;99.90
21255;DHT22;10785;50.674;17.954;2023-09-19T04:16:16;18.30;99.90
21255;DHT22;10785;50.674;17.954;2023-09-19T04:18:45;18.30;99.90
21255;DHT22;10785;50.674;17.954;2023-09-19T04:21:13;18.20;99.90
21255;DHT22;10785;50.674;17.954;2023-09-19T04:23:43;18.20;99.90
21255;DHT22;10785;50.674;17.954;2023-09-19T04:26:13;18.20;99.90
21255;DHT22;10785;50.674;17.954;2023-09-19T04:28:43;18.10;99.90
21255;DHT22;10785;50.674;17.954;2023-09-19T04:31:13;18.10;99.90
21255;DHT22;10785;50.674;17.954;2023-09-19T04:33:43;18.10;99.90
21255;DHT22;10785;50.674;17.954;2023-09-19T04:36:11;18.10;99.90
21255;DHT22;10785;50.674;17.954;2023-09-19T04:39:01;18.10;99.90
21255;DHT22;10785;50.674;17.954;2023-09-19T04:41:33;18.10;99.90
21255;DHT22;10785;50.674;17.954;2023-09-19T04:44:02;18.10;99.90
21255;DHT22;10785;50.674;17.954;2023-09-19T04:46:31;18.10;99.90
21255;DHT22;10785;50.674;17.954;2023-09-19T04:49:00;18.10;99.90
21255;DHT22;10785;50.674;17.954;2023-09-19T04:51:29;18.20;99.90
21255;DHT22;10785;50.674;17.954;2023-09-19T04:54:02;18.10;99.90
21255;DHT22;10785;50.674;17.954;2023-09-19T04:56:32;18.10;99.90
21255;DHT22;10785;50.674;17.954;2023-09-19T04:59:01;18.10;99.90
21255;DHT22;10785;50.674;17.954;2023-09-19T05:01:30;18.10;99.90
21255;DHT22;10785;50.674;17.954;2023-09-19T05:04:02;18.10;99.90
21255;DHT22;10785;50.674;17.954;2023-09-19T05:06:32;18.00;99.90
21255;DHT22;10785;50.674;17.954;2023-09-19T05:09:02;18.00;99.90
21255;DHT22;10785;50.674;17.954;2023-09-19T05:11:34;18.00;99.90
21255;DHT22;10785;50.674;17.954;2023-09-19T05:14:03;18.10;99.90
21255;DHT22;10785;50.674;17.954;2023-09-19T05:16:32;18.10;99.90
21255;DHT22;10785;50.674;17.954;2023-09-19T05:19:01;18.00;99.90
21255;DHT22;10785;50.674;17.954;2023-09-19T05:21:30;18.00;99.90
21255;DHT22;10785;50.674;17.954;2023-09-19T05:24:00;18.00;99.90
21255;DHT22;10785;50.674;17.954;2023-09-19T05:26:30;18.00;99.90
21255;DHT22;10785;50.674;17.954;2023-09-19T05:29:00;18.00;99.90
21255;DHT22;10785;50.674;17.954;2023-09-19T05:31:30;18.00;99.90
21255;DHT22;10785;50.674;17.954;2023-09-19T05:34:02;18.00;99.90
21255;DHT22;10785;50.674;17.954;2023-09-19T05:36:31;18.10;99.90
21255;DHT22;10785;50.674;17.954;2023-09-19T05:39:01;18.10;99.90
21255;DHT22;10785;50.674;17.954;2023-09-19T05:41:31;18.20;99.90
21255;DHT22;10785;50.674;17.954;2023-09-19T05:44:01;18.30;99.90
21255;DHT22;10785;50.674;17.954;2023-09-19T05:46:30;18.30;99.90
21255;DHT22;10785;50.674;17.954;2023-09-19T05:48:59;18.40;99.90
21255;DHT22;10785;50.674;17.954;2023-09-19T05:51:27;18.40;99.90
21255;DHT22;10785;50.674;17.954;2023-09-19T05:53:56;18.50;99.90
21255;DHT22;10785;50.674;17.954;2023-09-19T05:56:25;18.50;99.90
21255;DHT22;10785;50.674;17.954;2023-09-19T05:58:54;18.60;99.90
21255;DHT22;10785;50.674;17.954;2023-09-19T06:01:24;18.60;99.90
21255;DHT22;10785;50.674;17.954;2023-09-19T06:03:54;18.70;99.90
21255;DHT22;10785;50.674;17.954;2023-09-19T06:06:23;18.80;99.90
21255;DHT22;10785;50.674;17.954;2023-09-19T06:08:51;18.80;99.90
21255;DHT22;10785;50.674;17.954;2023-09-19T06:11:20;18.90;99.90
21255;DHT22;10785;50.674;17.954;2023-09-19T06:13:49;18.90;99.90
21255;DHT22;10785;50.674;17.954;2023-09-19T06:16:20;18.90;99.90
21255;DHT22;10785;50.674;17.954;2023-09-19T06:18:51;19.00;99.90
21255;DHT22;10785;50.674;17.954;2023-09-19T06:21:20;19.00;99.90
21255;DHT22;10785;50.674;17.954;2023-09-19T06:23:48;19.00;99.90
21255;DHT22;10785;50.674;17.954;2023-09-19T06:26:17;19.00;99.90
21255;DHT22;10785;50.674;17.954;2023-09-19T06:28:45;19.00;99.90
21255;DHT22;10785;50.674;17.954;2023-09-19T06:31:14;19.10;99.90
21255;DHT22;10785;50.674;17.954;2023-09-19T06:33:43;19.10;99.90
21255;DHT22;10785;50.674;17.954;2023-09-19T06:36:13;19.20;99.90
21255;DHT22;10785;50.674;17.954;2023-09-19T06:38:43;19.30;99.90
21255;DHT22;10785;50.674;17.954;2023-09-19T06:41:11;19.40;99.90
21255;DHT22;10785;50.674;17.954;2023-09-19T06:43:41;19.40;99.90
21255;DHT22;10785;50.674;17.954;2023-09-19T06:46:11;19.60;99.90
21255;DHT22;10785;50.674;17.954;2023-09-19T06:48:40;19.70;99.90
21255;DHT22;10785;50.674;17.954;2023-09-19T06:51:12;19.70;99.90
21255;DHT22;10785;50.674;17.954;2023-09-19T06:53:43;19.70;99.90
21255;DHT22;10785;50.674;17.954;2023-09-19T06:56:11;19.60;99.90
21255;DHT22;10785;50.674;17.954;2023-09-19T06:58:40;19.50;99.90
21255;DHT22;10785;50.674;17.954;2023-09-19T07:01:11;19.50;99.90
21255;DHT22;10785;50.674;17.954;2023-09-19T07:03:40;19.40;99.90
21255;DHT22;10785;50.674;17.954;2023-09-19T07:06:14;19.30;99.90
21255;DHT22;10785;50.674;17.954;2023-09-19T07:08:43;19.40;99.90
21255;DHT22;10785;50.674;17.954;2023-09-19T07:11:12;19.40;99.90
21255;DHT22;10785;50.674;17.954;2023-09-19T07:13:41;19.60;99.90
21255;DHT22;10785;50.674;17.954;2023-09-19T07:16:10;19.70;99.90
21255;DHT22;10785;50.674;17.954;2023-09-19T07:18:55;19.70;99.90
21255;DHT22;10785;50.674;17.954;2023-09-19T07:21:26;19.70;99.90
21255;DHT22;10785;50.674;17.954;2023-09-19T07:23:55;19.70;99.90
21255;DHT22;10785;50.674;17.954;2023-09-19T07:26:24;19.90;99.90
21255;DHT22;10785;50.674;17.954;2023-09-19T07:28:53;20.00;99.90
21255;DHT22;10785;50.674;17.954;2023-09-19T07:31:22;19.90;99.90
21255;DHT22;10785;50.674;17.954;2023-09-19T07:33:50;19.80;99.90
21255;DHT22;10785;50.674;17.954;2023-09-19T07:36:19;19.80;99.90
21255;DHT22;10785;50.674;17.954;2023-09-19T07:38:52;19.80;99.90
21255;DHT22;10785;50.674;17.954;2023-09-19T07:41:33;19.70;99.90
21255;DHT22;10785;50.674;17.954;2023-09-19T07:44:01;19.80;99.90
21255;DHT22;10785;50.674;17.954;2023-09-19T07:46:31;19.90;99.90
21255;DHT22;10785;50.674;17.954;2023-09-19T07:48:59;19.90;99.90
21255;DHT22;10785;50.674;17.954;2023-09-19T07:51:28;20.00;99.90
21255;DHT22;10785;50.674;17.954;2023-09-19T07:53:58;20.00;99.90
21255;DHT22;10785;50.674;17.954;2023-09-19T07:56:27;20.00;99.90
21255;DHT22;10785;50.674;17.954;2023-09-19T07:58:55;19.90;99.90
21255;DHT22;10785;50.674;17.954;2023-09-19T08:01:26;19.90;99.90
21255;DHT22;10785;50.674;17.954;2023-09-19T08:03:56;20.00;99.90
21255;DHT22;10785;50.674;17.954;2023-09-19T08:06:25;20.00;99.90
21255;DHT22;10785;50.674;17.954;2023-09-19T08:08:58;19.80;99.90
21255;DHT22;10785;50.674;17.954;2023-09-19T08:11:28;19.80;99.90
21255;DHT22;10785;50.674;17.954;2023-09-19T08:13:58;19.80;99.90
21255;DHT22;10785;50.674;17.954;2023-09-19T08:16:27;19.90;99.90
21255;DHT22;10785;50.674;17.954;2023-09-19T08:18:56;19.80;99.90
21255;DHT22;10785;50.674;17.954;2023-09-19T08:21:25;19.80;99.90
21255;DHT22;10785;50.674;17.954;2023-09-19T08:23:58;19.80;99.90
21255;DHT22;10785;50.674;17.954;2023-09-19T08:26:28;19.80;99.90
21255;DHT22;10785;50.674;17.954;2023-09-19T08:28:56;19.70;99.90
21255;DHT22;10785;50.674;17.954;2023-09-19T08:31:25;19.60;99.90
21255;DHT22;10785;50.674;17.954;2023-09-19T08:33:54;19.60;99.90
21255;DHT22;10785;50.674;17.954;2023-09-19T08:36:26;19.50;99.90
21255;DHT22;10785;50.674;17.954;2023-09-19T08:38:55;19.50;99.90
21255;DHT22;10785;50.674;17.954;2023-09-19T08:41:25;19.60;99.90
21255;DHT22;10785;50.674;17.954;2023-09-19T08:43:53;19.60;99.90
21255;DHT22;10785;50.674;17.954;2023-09-19T08:46:25;19.70;99.90
21255;DHT22;10785;50.674;17.954;2023-09-19T08:49:03;19.60;99.90
21255;DHT22;10785;50.674;17.954;2023-09-19T08:51:41;19.60;99.90
21255;DHT22;10785;50.674;17.954;2023-09-19T08:54:21;19.60;99.90
21255;DHT22;10785;50.674;17.954;2023-09-19T08:56:54;19.60;99.90
21255;DHT22;10785;50.674;17.954;2023-09-19T08:59:23;19.50;99.90
21255;DHT22;10785;50.674;17.954;2023-09-19T09:01:53;19.50;99.90
21255;DHT22;10785;50.674;17.954;2023-09-19T09:04:23;19.40;99.90
21255;DHT22;10785;50.674;17.954;2023-09-19T09:06:56;19.30;99.90
21255;DHT22;10785;50.674;17.954;2023-09-19T09:09:25;19.30;99.90
21255;DHT22;10785;50.674;17.954;2023-09-19T09:11:59;19.20;99.90
21255;DHT22;10785;50.674;17.954;2023-09-19T09:14:28;19.20;99.90
21255;DHT22;10785;50.674;17.954;2023-09-19T09:16:58;19.30;99.90
21255;DHT22;10785;50.674;17.954;2023-09-19T09:19:27;19.30;99.90
21255;DHT22;10785;50.674;17.954;2023-09-19T09:22:06;19.30;99.90
21255;DHT22;10785;50.674;17.954;2023-09-19T09:24:35;19.30;99.90
21255;DHT22;10785;50.674;17.954;2023-09-19T09:27:07;19.40;99.90
21255;DHT22;10785;50.674;17.954;2023-09-19T09:29:44;19.40;99.90
21255;DHT22;10785;50.674;17.954;2023-09-19T09:32:19;19.40;99.90
21255;DHT22;10785;50.674;17.954;2023-09-19T09:34:51;19.30;99.90
21255;DHT22;10785;50.674;17.954;2023-09-19T09:37:21;19.30;99.90
21255;DHT22;10785;50.674;17.954;2023-09-19T09:39:53;19.40;99.90
21255;DHT22;10785;50.674;17.954;2023-09-19T09:42:32;19.30;99.90
21255;DHT22;10785;50.674;17.954;2023-09-19T09:45:16;19.30;99.90
21255;DHT22;10785;50.674;17.954;2023-09-19T09:47:48;19.30;99.90
21255;DHT22;10785;50.674;17.954;2023-09-19T09:50:28;19.30;99.90
21255;DHT22;10785;50.674;17.954;2023-09-19T09:53:20;19.30;99.90
21255;DHT22;10785;50.674;17.954;2023-09-19T09:56:02;19.40;99.90
21255;DHT22;10785;50.674;17.954;2023-09-19T09:58:36;19.60;99.90
21255;DHT22;10785;50.674;17.954;2023-09-19T10:01:08;19.80;99.90
21255;DHT22;10785;50.674;17.954;2023-09-19T10:03:43;19.80;99.90
21255;DHT22;10785;50.674;17.954;2023-09-19T10:08:58;20.00;99.90
21255;DHT22;10785;50.674;17.954;2023-09-19T10:11:41;20.00;99.90
21255;DHT22;10785;50.674;17.954;2023-09-19T10:14:15;20.10;99.90
21255;DHT22;10785;50.674;17.954;2023-09-19T10:16:46;20.20;99.90
21255;DHT22;10785;50.674;17.954;2023-09-19T10:19:21;20.20;99.90
21255;DHT22;10785;50.674;17.954;2023-09-19T10:21:54;20.20;99.90
21255;DHT22;10785;50.674;17.954;2023-09-19T10:24:26;20.10;99.90
21255;DHT22;10785;50.674;17.954;2023-09-19T10:26:56;19.90;99.90
21255;DHT22;10785;50.674;17.954;2023-09-19T10:29:32;19.80;99.90
21255;DHT22;10785;50.674;17.954;2023-09-19T10:32:03;19.80;99.90
21255;DHT22;10785;50.674;17.954;2023-09-19T10:34:36;19.90;99.90
21255;DHT22;10785;50.674;17.954;2023-09-19T10:37:05;19.90;99.90
21255;DHT22;10785;50.674;17.954;2023-09-19T10:39:45;19.90;99.90
21255;DHT22;10785;50.674;17.954;2023-09-19T10:42:19;19.90;99.90
21255;DHT22;10785;50.674;17.954;2023-09-19T10:44:52;20.00;99.90
21255;DHT22;10785;50.674;17.954;2023-09-19T10:47:21;20.20;99.90
21255;DHT22;10785;50.674;17.954;2023-09-19T10:49:52;20.20;99.90
21255;DHT22;10785;50.674;17.954;2023-09-19T10:52:25;20.30;99.90
21255;DHT22;10785;50.674;17.954;2023-09-19T10:54:57;20.40;99.90
21255;DHT22;10785;50.674;17.954;2023-09-19T10:57:30;20.40;99.90
21255;DHT22;10785;50.674;17.954;2023-09-19T11:00:06;20.60;99.90
21255;DHT22;10785;50.674;17.954;2023-09-19T11:03:17;20.80;99.90
21255;DHT22;10785;50.674;17.954;2023-09-19T11:06:09;21.10;99.90
21255;DHT22;10785;50.674;17.954;2023-09-19T11:08:58;21.30;99.90
21255;DHT22;10785;50.674;17.954;2023-09-19T11:11:42;21.40;99.90
21255;DHT22;10785;50.674;17.954;2023-09-19T11:14:37;21.50;99.90
21255;DHT22;10785;50.674;17.954;2023-09-19T11:20:25;22.00;99.90
21255;DHT22;10785;50.674;17.954;2023-09-19T11:23:28;21.80;99.90
21255;DHT22;10785;50.674;17.954;2023-09-19T11:26:04;22.00;99.90
21255;DHT22;10785;50.674;17.954;2023-09-19T11:28:33;22.10;99.90
21255;DHT22;10785;50.674;17.954;2023-09-19T11:34:53;21.80;99.90
21255;DHT22;10785;50.674;17.954;2023-09-19T11:38:00;21.80;99.90
21255;DHT22;10785;50.674;17.954;2023-09-19T11:40:46;21.70;99.90
21255;DHT22;10785;50.674;17.954;2023-09-19T11:43:32;21.80;99.90
21255;DHT22;10785;50.674;17.954;2023-09-19T11:46:08;21.90;99.90
21255;DHT22;10785;50.674;17.954;2023-09-19T11:48:39;22.00;99.90
21255;DHT22;10785;50.674;17.954;2023-09-19T11:51:13;22.00;99.90
21255;DHT22;10785;50.674;17.954;2023-09-19T11:53:48;21.90;99.90
21255;DHT22;10785;50.674;17.954;2023-09-19T11:56:19;21.90;99.90
21255;DHT22;10785;50.674;17.954;2023-09-19T11:58:53;21.80;99.90
21255;DHT22;10785;50.674;17.954;2023-09-19T12:01:25;21.80;99.90
21255;DHT22;10785;50.674;17.954;2023-09-19T12:03:58;21.70;99.90
21255;DHT22;10785;50.674;17.954;2023-09-19T12:06:29;21.70;99.90
21255;DHT22;10785;50.674;17.954;2023-09-19T12:09:05;21.70;99.90
21255;DHT22;10785;50.674;17.954;2023-09-19T12:11:42;21.90;99.90
21255;DHT22;10785;50.674;17.954;2023-09-19T12:14:20;22.00;99.90
21255;DHT22;10785;50.674;17.954;2023-09-19T12:16:53;22.00;99.90
21255;DHT22;10785;50.674;17.954;2023-09-19T12:19:24;21.90;99.90
21255;DHT22;10785;50.674;17.954;2023-09-19T12:21:59;21.90;99.90
21255;DHT22;10785;50.674;17.954;2023-09-19T12:24:34;21.90;99.90
21255;DHT22;10785;50.674;17.954;2023-09-19T12:27:06;21.80;99.90
21255;DHT22;10785;50.674;17.954;2023-09-19T12:29:44;21.60;99.90
21255;DHT22;10785;50.674;17.954;2023-09-19T12:32:13;21.70;99.90
21255;DHT22;10785;50.674;17.954;2023-09-19T12:34:50;21.70;99.90
21255;DHT22;10785;50.674;17.954;2023-09-19T12:37:21;21.60;99.90
21255;DHT22;10785;50.674;17.954;2023-09-19T12:39:52;21.50;97.10
21255;DHT22;10785;50.674;17.954;2023-09-19T12:42:23;21.50;97.00
21255;DHT22;10785;50.674;17.954;2023-09-19T12:44:53;21.50;97.20
21255;DHT22;10785;50.674;17.954;2023-09-19T12:47:24;21.40;97.00
21255;DHT22;10785;50.674;17.954;2023-09-19T12:50:09;21.40;97.80
21255;DHT22;10785;50.674;17.954;2023-09-19T12:52:45;21.30;97.50
21255;DHT22;10785;50.674;17.954;2023-09-19T12:55:27;21.20;98.90
21255;DHT22;10785;50.674;17.954;2023-09-19T12:58:21;21.10;99.90
21255;DHT22;10785;50.674;17.954;2023-09-19T13:00:50;21.00;99.90
21255;DHT22;10785;50.674;17.954;2023-09-19T13:03:25;20.90;99.90
21255;DHT22;10785;50.674;17.954;2023-09-19T13:05:57;20.90;99.90
21255;DHT22;10785;50.674;17.954;2023-09-19T13:08:29;20.90;99.90
21255;DHT22;10785;50.674;17.954;2023-09-19T13:11:07;20.90;99.90
21255;DHT22;10785;50.674;17.954;2023-09-19T13:13:42;20.90;99.90
21255;DHT22;10785;50.674;17.954;2023-09-19T13:16:17;20.90;99.90
21255;DHT22;10785;50.674;17.954;2023-09-19T13:18:50;20.90;99.80
21255;DHT22;10785;50.674;17.954;2023-09-19T13:21:28;20.90;99.90
21255;DHT22;10785;50.674;17.954;2023-09-19T13:24:18;20.90;97.60
21255;DHT22;10785;50.674;17.954;2023-09-19T13:26:48;20.90;97.40
21255;DHT22;10785;50.674;17.954;2023-09-19T13:29:17;20.90;97.70
21255;DHT22;10785;50.674;17.954;2023-09-19T13:31:47;20.90;95.90
21255;DHT22;10785;50.674;17.954;2023-09-19T13:34:16;21.10;95.80
21255;DHT22;10785;50.674;17.954;2023-09-19T13:36:45;21.20;95.80
21255;DHT22;10785;50.674;17.954;2023-09-19T13:39:15;21.30;95.70
21255;DHT22;10785;50.674;17.954;2023-09-19T13:41:45;21.50;94.20
21255;DHT22;10785;50.674;17.954;2023-09-19T13:44:16;21.30;99.90
21255;DHT22;10785;50.674;17.954;2023-09-19T13:46:45;21.20;99.90
21255;DHT22;10785;50.674;17.954;2023-09-19T13:49:14;21.10;99.90
21255;DHT22;10785;50.674;17.954;2023-09-19T13:51:49;21.10;99.90
21255;DHT22;10785;50.674;17.954;2023-09-19T13:54:17;21.10;99.90
21255;DHT22;10785;50.674;17.954;2023-09-19T13:56:48;21.20;99.90
21255;DHT22;10785;50.674;17.954;2023-09-19T13:59:18;21.20;99.90
21255;DHT22;10785;50.674;17.954;2023-09-19T14:01:48;21.20;99.90
21255;DHT22;10785;50.674;17.954;2023-09-19T14:04:18;21.10;99.90
21255;DHT22;10785;50.674;17.954;2023-09-19T14:06:46;21.00;99.90
21255;DHT22;10785;50.674;17.954;2023-09-19T14:09:15;20.90;99.90
21255;DHT22;10785;50.674;17.954;2023-09-19T14:11:46;20.80;99.90
21255;DHT22;10785;50.674;17.954;2023-09-19T14:14:15;20.80;99.90
21255;DHT22;10785;50.674;17.954;2023-09-19T14:16:45;21.00;99.90
21255;DHT22;10785;50.674;17.954;2023-09-19T14:19:14;21.00;99.90
21255;DHT22;10785;50.674;17.954;2023-09-19T14:21:43;21.10;99.90
21255;DHT22;10785;50.674;17.954;2023-09-19T14:24:16;21.20;99.90
21255;DHT22;10785;50.674;17.954;2023-09-19T14:26:45;21.30;99.90
21255;DHT22;10785;50.674;17.954;2023-09-19T14:29:15;21.20;99.90
21255;DHT22;10785;50.674;17.954;2023-09-19T14:31:45;21.20;99.90
21255;DHT22;10785;50.674;17.954;2023-09-19T14:34:15;21.30;99.90
21255;DHT22;10785;50.674;17.954;2023-09-19T14:36:44;21.30;99.90
21255;DHT22;10785;50.674;17.954;2023-09-19T14:39:13;21.30;99.90
21255;DHT22;10785;50.674;17.954;2023-09-19T14:41:41;21.30;99.90
21255;DHT22;10785;50.674;17.954;2023-09-19T14:44:10;21.30;99.90
21255;DHT22;10785;50.674;17.954;2023-09-19T14:46:39;21.10;99.90
21255;DHT22;10785;50.674;17.954;2023-09-19T14:49:09;21.20;99.90
21255;DHT22;10785;50.674;17.954;2023-09-19T14:51:38;21.20;99.90
21255;DHT22;10785;50.674;17.954;2023-09-19T14:54:08;21.20;99.90
21255;DHT22;10785;50.674;17.954;2023-09-19T14:56:37;21.20;99.90
21255;DHT22;10785;50.674;17.954;2023-09-19T14:59:08;21.30;99.90
21255;DHT22;10785;50.674;17.954;2023-09-19T15:01:38;21.30;99.90
21255;DHT22;10785;50.674;17.954;2023-09-19T15:04:10;21.20;99.90
21255;DHT22;10785;50.674;17.954;2023-09-19T15:06:39;21.20;99.90
21255;DHT22;10785;50.674;17.954;2023-09-19T15:09:07;21.20;99.90
21255;DHT22;10785;50.674;17.954;2023-09-19T15:11:37;21.10;99.90
21255;DHT22;10785;50.674;17.954;2023-09-19T15:14:06;21.10;99.90
21255;DHT22;10785;50.674;17.954;2023-09-19T15:16:34;21.10;99.90
21255;DHT22;10785;50.674;17.954;2023-09-19T15:19:03;21.00;99.90
21255;DHT22;10785;50.674;17.954;2023-09-19T15:21:33;21.00;99.90
21255;DHT22;10785;50.674;17.954;2023-09-19T15:24:03;21.00;99.90
21255;DHT22;10785;50.674;17.954;2023-09-19T15:26:33;21.00;99.90
21255;DHT22;10785;50.674;17.954;2023-09-19T15:29:06;20.90;99.90
21255;DHT22;10785;50.674;17.954;2023-09-19T15:31:36;20.90;99.90
21255;DHT22;10785;50.674;17.954;2023-09-19T15:34:05;20.90;99.90
21255;DHT22;10785;50.674;17.954;2023-09-19T15:36:38;20.90;99.90
21255;DHT22;10785;50.674;17.954;2023-09-19T15:39:07;20.90;99.90
21255;DHT22;10785;50.674;17.954;2023-09-19T15:41:44;20.90;99.90
21255;DHT22;10785;50.674;17.954;2023-09-19T15:44:14;20.90;99.90
21255;DHT22;10785;50.674;17.954;2023-09-19T15:46:44;20.90;99.90
21255;DHT22;10785;50.674;17.954;2023-09-19T15:52:11;20.80;99.90
21255;DHT22;10785;50.674;17.954;2023-09-19T15:54:40;20.80;99.90
21255;DHT22;10785;50.674;17.954;2023-09-19T15:57:12;20.70;99.90